KFFT/FFT METAR and TAF weather

Enter ICAO airport designator
Station Type Date Time Source
KFFT METAR 2019/04/19 08:24 UTC NOAA

KFFT 190824Z AUTO 30005KT 5SM -RA BR SCT005 BKN019 OVC030 15/14 A2949 RMK AO2 P0010 T01500144


Station Type Date Time Source
KFFT Decoded METAR 2019/04/19 08:24 UTC NOAA

FRANKFORT CAPITAL CITY AIRPORT , KY, United States (KFFT) 38-11N 84-54W 236M
Apr 19, 2019 - 04:24 AM EDT / 2019.04.19 0824 UTC
Wind: from the WNW (300 degrees) at 6 MPH (5 KT):0
Visibility: 5 mile(s):0
Sky conditions: overcast
Weather: light rain; mist
Precipitation last hour: 0.10 inches
Temperature: 59.0 F (15.0 C)
Dew Point: 57.9 F (14.4 C)
Relative Humidity: 96%
Pressure (altimeter): 29.49 in. Hg (998 hPa)
ob: KFFT 190824Z AUTO 30005KT 5SM -RA BR SCT005 BKN019 OVC030 15/14 A2949 RMK AO2 P0010 T01500144
cycle: 8

Station Type Date Time Source
KFFT TAF UTC NOAA

Error!

Example: see airport list